sensor_id;sensor_type;location;lat;lon;timestamp;P1;durP1;ratioP1;P2;durP2;ratioP2
75823;SDS011;64457;51.976;9.834;2023-04-29T00:00:40;16.87;;;8.93;;
75823;SDS011;64457;51.976;9.834;2023-04-29T00:03:10;19.33;;;9.70;;
75823;SDS011;64457;51.976;9.834;2023-04-29T00:05:38;17.10;;;8.93;;
75823;SDS011;64457;51.976;9.834;2023-04-29T00:08:07;18.37;;;9.47;;
75823;SDS011;64457;51.976;9.834;2023-04-29T00:10:35;17.40;;;9.63;;
75823;SDS011;64457;51.976;9.834;2023-04-29T00:13:03;19.47;;;10.33;;
75823;SDS011;64457;51.976;9.834;2023-04-29T00:15:32;19.33;;;9.33;;
75823;SDS011;64457;51.976;9.834;2023-04-29T00:18:01;20.47;;;10.13;;
75823;SDS011;64457;51.976;9.834;2023-04-29T00:20:31;17.50;;;9.70;;
75823;SDS011;64457;51.976;9.834;2023-04-29T00:23:00;19.57;;;10.47;;
75823;SDS011;64457;51.976;9.834;2023-04-29T00:25:29;17.93;;;10.00;;
75823;SDS011;64457;51.976;9.834;2023-04-29T00:27:57;19.90;;;10.30;;
75823;SDS011;64457;51.976;9.834;2023-04-29T00:30:26;18.33;;;10.20;;
75823;SDS011;64457;51.976;9.834;2023-04-29T00:32:54;17.23;;;9.73;;
75823;SDS011;64457;51.976;9.834;2023-04-29T00:35:22;17.43;;;9.43;;
75823;SDS011;64457;51.976;9.834;2023-04-29T00:37:52;17.57;;;9.40;;
75823;SDS011;64457;51.976;9.834;2023-04-29T00:40:20;19.07;;;10.57;;
75823;SDS011;64457;51.976;9.834;2023-04-29T00:42:49;19.03;;;9.87;;
75823;SDS011;64457;51.976;9.834;2023-04-29T00:45:17;16.97;;;10.00;;
75823;SDS011;64457;51.976;9.834;2023-04-29T00:47:44;17.20;;;9.73;;
75823;SDS011;64457;51.976;9.834;2023-04-29T00:50:12;17.47;;;9.40;;
75823;SDS011;64457;51.976;9.834;2023-04-29T00:52:41;17.07;;;9.73;;
75823;SDS011;64457;51.976;9.834;2023-04-29T00:55:14;16.50;;;9.43;;
75823;SDS011;64457;51.976;9.834;2023-04-29T00:57:42;17.17;;;9.63;;
75823;SDS011;64457;51.976;9.834;2023-04-29T01:00:12;16.30;;;9.00;;
75823;SDS011;64457;51.976;9.834;2023-04-29T01:02:41;17.73;;;9.90;;
75823;SDS011;64457;51.976;9.834;2023-04-29T01:05:11;17.73;;;9.83;;
75823;SDS011;64457;51.976;9.834;2023-04-29T01:07:42;18.20;;;8.93;;
75823;SDS011;64457;51.976;9.834;2023-04-29T01:10:21;19.50;;;10.80;;
75823;SDS011;64457;51.976;9.834;2023-04-29T01:12:57;18.80;;;10.53;;
75823;SDS011;64457;51.976;9.834;2023-04-29T01:15:34;19.30;;;10.60;;
75823;SDS011;64457;51.976;9.834;2023-04-29T01:18:11;21.40;;;11.83;;
75823;SDS011;64457;51.976;9.834;2023-04-29T01:20:47;26.13;;;13.37;;
75823;SDS011;64457;51.976;9.834;2023-04-29T01:23:15;26.73;;;13.80;;
75823;SDS011;64457;51.976;9.834;2023-04-29T01:25:46;26.93;;;15.10;;
75823;SDS011;64457;51.976;9.834;2023-04-29T01:28:18;27.37;;;15.17;;
75823;SDS011;64457;51.976;9.834;2023-04-29T01:30:59;28.40;;;16.70;;
75823;SDS011;64457;51.976;9.834;2023-04-29T01:33:40;29.37;;;15.10;;
75823;SDS011;64457;51.976;9.834;2023-04-29T01:36:20;26.73;;;15.30;;
75823;SDS011;64457;51.976;9.834;2023-04-29T01:38:59;28.50;;;16.10;;
75823;SDS011;64457;51.976;9.834;2023-04-29T01:41:40;29.10;;;17.00;;
75823;SDS011;64457;51.976;9.834;2023-04-29T01:44:12;29.87;;;16.57;;
75823;SDS011;64457;51.976;9.834;2023-04-29T01:46:46;32.17;;;17.87;;
75823;SDS011;64457;51.976;9.834;2023-04-29T01:49:19;33.03;;;17.97;;
75823;SDS011;64457;51.976;9.834;2023-04-29T01:51:47;31.47;;;16.13;;
75823;SDS011;64457;51.976;9.834;2023-04-29T01:54:15;30.37;;;16.27;;
75823;SDS011;64457;51.976;9.834;2023-04-29T01:56:45;33.40;;;17.77;;
75823;SDS011;64457;51.976;9.834;2023-04-29T01:59:16;30.60;;;17.10;;
75823;SDS011;64457;51.976;9.834;2023-04-29T02:01:45;33.20;;;17.60;;
75823;SDS011;64457;51.976;9.834;2023-04-29T02:04:13;30.80;;;16.57;;
75823;SDS011;64457;51.976;9.834;2023-04-29T02:06:41;32.50;;;17.37;;
75823;SDS011;64457;51.976;9.834;2023-04-29T02:09:10;32.13;;;17.40;;
75823;SDS011;64457;51.976;9.834;2023-04-29T02:11:39;31.60;;;17.53;;
75823;SDS011;64457;51.976;9.834;2023-04-29T02:14:09;29.23;;;17.00;;
75823;SDS011;64457;51.976;9.834;2023-04-29T02:16:38;30.77;;;16.70;;
75823;SDS011;64457;51.976;9.834;2023-04-29T02:19:06;30.20;;;17.07;;
75823;SDS011;64457;51.976;9.834;2023-04-29T02:21:33;29.00;;;16.53;;
75823;SDS011;64457;51.976;9.834;2023-04-29T02:24:01;32.73;;;17.40;;
75823;SDS011;64457;51.976;9.834;2023-04-29T02:26:29;30.00;;;16.50;;
75823;SDS011;64457;51.976;9.834;2023-04-29T02:28:58;28.97;;;16.73;;
75823;SDS011;64457;51.976;9.834;2023-04-29T02:31:27;30.83;;;17.77;;
75823;SDS011;64457;51.976;9.834;2023-04-29T02:33:55;30.17;;;16.57;;
75823;SDS011;64457;51.976;9.834;2023-04-29T02:36:24;32.23;;;17.70;;
75823;SDS011;64457;51.976;9.834;2023-04-29T02:38:52;32.57;;;16.93;;
75823;SDS011;64457;51.976;9.834;2023-04-29T02:41:20;33.63;;;16.47;;
75823;SDS011;64457;51.976;9.834;2023-04-29T02:43:50;33.03;;;17.60;;
75823;SDS011;64457;51.976;9.834;2023-04-29T02:46:17;30.97;;;16.83;;
75823;SDS011;64457;51.976;9.834;2023-04-29T02:48:48;34.50;;;19.10;;
75823;SDS011;64457;51.976;9.834;2023-04-29T02:51:15;30.57;;;16.90;;
75823;SDS011;64457;51.976;9.834;2023-04-29T02:53:43;31.67;;;17.00;;
75823;SDS011;64457;51.976;9.834;2023-04-29T02:56:11;33.63;;;17.57;;
75823;SDS011;64457;51.976;9.834;2023-04-29T02:58:39;32.10;;;17.23;;
75823;SDS011;64457;51.976;9.834;2023-04-29T03:01:07;34.03;;;17.57;;
75823;SDS011;64457;51.976;9.834;2023-04-29T03:03:36;35.03;;;17.90;;
75823;SDS011;64457;51.976;9.834;2023-04-29T03:06:06;34.80;;;17.60;;
75823;SDS011;64457;51.976;9.834;2023-04-29T03:08:34;35.77;;;18.50;;
75823;SDS011;64457;51.976;9.834;2023-04-29T03:11:02;36.23;;;18.60;;
75823;SDS011;64457;51.976;9.834;2023-04-29T03:13:32;37.63;;;18.20;;
75823;SDS011;64457;51.976;9.834;2023-04-29T03:16:00;36.80;;;19.30;;
75823;SDS011;64457;51.976;9.834;2023-04-29T03:18:28;39.43;;;18.37;;
75823;SDS011;64457;51.976;9.834;2023-04-29T03:20:55;37.30;;;18.77;;
75823;SDS011;64457;51.976;9.834;2023-04-29T03:23:24;35.60;;;18.13;;
75823;SDS011;64457;51.976;9.834;2023-04-29T03:25:54;39.63;;;19.90;;
75823;SDS011;64457;51.976;9.834;2023-04-29T03:28:21;43.60;;;20.50;;
75823;SDS011;64457;51.976;9.834;2023-04-29T03:30:49;38.40;;;18.70;;
75823;SDS011;64457;51.976;9.834;2023-04-29T03:33:17;39.67;;;19.40;;
75823;SDS011;64457;51.976;9.834;2023-04-29T03:35:45;40.17;;;19.20;;
75823;SDS011;64457;51.976;9.834;2023-04-29T03:38:13;38.07;;;18.00;;
75823;SDS011;64457;51.976;9.834;2023-04-29T03:40:42;37.43;;;18.63;;
75823;SDS011;64457;51.976;9.834;2023-04-29T03:43:10;35.60;;;17.47;;
75823;SDS011;64457;51.976;9.834;2023-04-29T03:45:39;36.70;;;17.60;;
75823;SDS011;64457;51.976;9.834;2023-04-29T03:48:06;40.27;;;17.73;;
75823;SDS011;64457;51.976;9.834;2023-04-29T03:50:34;38.70;;;18.03;;
75823;SDS011;64457;51.976;9.834;2023-04-29T03:53:03;39.90;;;18.60;;
75823;SDS011;64457;51.976;9.834;2023-04-29T03:55:31;35.53;;;16.80;;
75823;SDS011;64457;51.976;9.834;2023-04-29T03:58:00;36.10;;;14.60;;
75823;SDS011;64457;51.976;9.834;2023-04-29T04:00:28;32.10;;;14.57;;
75823;SDS011;64457;51.976;9.834;2023-04-29T04:02:57;29.97;;;13.40;;
75823;SDS011;64457;51.976;9.834;2023-04-29T04:05:26;27.63;;;13.23;;
75823;SDS011;64457;51.976;9.834;2023-04-29T04:07:56;24.40;;;12.10;;
75823;SDS011;64457;51.976;9.834;2023-04-29T04:10:24;26.17;;;12.17;;
75823;SDS011;64457;51.976;9.834;2023-04-29T04:12:53;24.73;;;11.57;;
75823;SDS011;64457;51.976;9.834;2023-04-29T04:15:22;22.50;;;10.80;;
75823;SDS011;64457;51.976;9.834;2023-04-29T04:17:51;23.00;;;11.53;;
75823;SDS011;64457;51.976;9.834;2023-04-29T04:20:20;24.00;;;11.07;;
75823;SDS011;64457;51.976;9.834;2023-04-29T04:22:47;20.90;;;10.50;;
75823;SDS011;64457;51.976;9.834;2023-04-29T04:25:15;23.20;;;10.93;;
75823;SDS011;64457;51.976;9.834;2023-04-29T04:27:42;21.50;;;11.23;;
75823;SDS011;64457;51.976;9.834;2023-04-29T04:30:10;25.43;;;12.97;;
75823;SDS011;64457;51.976;9.834;2023-04-29T04:32:40;23.63;;;12.30;;
75823;SDS011;64457;51.976;9.834;2023-04-29T04:35:08;25.43;;;13.10;;
75823;SDS011;64457;51.976;9.834;2023-04-29T04:37:35;29.70;;;14.17;;
75823;SDS011;64457;51.976;9.834;2023-04-29T04:40:03;27.30;;;15.03;;
75823;SDS011;64457;51.976;9.834;2023-04-29T04:42:32;31.33;;;17.20;;
75823;SDS011;64457;51.976;9.834;2023-04-29T04:45:00;31.43;;;16.53;;
75823;SDS011;64457;51.976;9.834;2023-04-29T04:47:28;33.03;;;18.27;;
75823;SDS011;64457;51.976;9.834;2023-04-29T04:49:57;36.80;;;19.63;;
75823;SDS011;64457;51.976;9.834;2023-04-29T04:52:25;35.90;;;19.33;;
75823;SDS011;64457;51.976;9.834;2023-04-29T04:54:53;37.47;;;19.40;;
75823;SDS011;64457;51.976;9.834;2023-04-29T04:57:22;39.23;;;21.17;;
75823;SDS011;64457;51.976;9.834;2023-04-29T04:59:51;38.90;;;21.10;;
75823;SDS011;64457;51.976;9.834;2023-04-29T05:02:20;41.70;;;22.40;;
75823;SDS011;64457;51.976;9.834;2023-04-29T05:04:48;39.47;;;21.23;;
75823;SDS011;64457;51.976;9.834;2023-04-29T05:07:18;40.60;;;21.90;;
75823;SDS011;64457;51.976;9.834;2023-04-29T05:09:50;37.90;;;20.33;;
75823;SDS011;64457;51.976;9.834;2023-04-29T05:12:19;43.50;;;22.07;;
75823;SDS011;64457;51.976;9.834;2023-04-29T05:14:51;43.20;;;23.43;;
75823;SDS011;64457;51.976;9.834;2023-04-29T05:17:19;37.07;;;21.77;;
75823;SDS011;64457;51.976;9.834;2023-04-29T05:19:48;45.50;;;23.20;;
75823;SDS011;64457;51.976;9.834;2023-04-29T05:22:18;43.37;;;21.97;;
75823;SDS011;64457;51.976;9.834;2023-04-29T05:24:46;44.03;;;22.77;;
75823;SDS011;64457;51.976;9.834;2023-04-29T05:27:15;38.20;;;22.63;;
75823;SDS011;64457;51.976;9.834;2023-04-29T05:29:44;41.67;;;22.10;;
75823;SDS011;64457;51.976;9.834;2023-04-29T05:32:13;40.30;;;23.00;;
75823;SDS011;64457;51.976;9.834;2023-04-29T05:34:43;38.10;;;21.53;;
75823;SDS011;64457;51.976;9.834;2023-04-29T05:37:12;43.07;;;22.53;;
75823;SDS011;64457;51.976;9.834;2023-04-29T05:39:41;43.10;;;22.43;;
75823;SDS011;64457;51.976;9.834;2023-04-29T05:42:09;39.50;;;22.70;;
75823;SDS011;64457;51.976;9.834;2023-04-29T05:44:38;40.43;;;23.10;;
75823;SDS011;64457;51.976;9.834;2023-04-29T05:47:05;40.57;;;21.97;;
75823;SDS011;64457;51.976;9.834;2023-04-29T05:49:33;37.90;;;22.33;;
75823;SDS011;64457;51.976;9.834;2023-04-29T05:52:01;37.97;;;22.07;;
75823;SDS011;64457;51.976;9.834;2023-04-29T05:54:30;39.53;;;22.80;;
75823;SDS011;64457;51.976;9.834;2023-04-29T05:57:00;37.33;;;21.67;;
75823;SDS011;64457;51.976;9.834;2023-04-29T05:59:30;39.50;;;23.17;;
75823;SDS011;64457;51.976;9.834;2023-04-29T06:01:59;42.07;;;23.37;;
75823;SDS011;64457;51.976;9.834;2023-04-29T06:04:27;38.27;;;22.37;;
75823;SDS011;64457;51.976;9.834;2023-04-29T06:06:55;44.30;;;24.57;;
75823;SDS011;64457;51.976;9.834;2023-04-29T06:09:23;43.53;;;24.90;;
75823;SDS011;64457;51.976;9.834;2023-04-29T06:11:52;48.37;;;25.37;;
75823;SDS011;64457;51.976;9.834;2023-04-29T06:14:22;43.70;;;24.83;;
75823;SDS011;64457;51.976;9.834;2023-04-29T06:16:50;46.47;;;27.03;;
75823;SDS011;64457;51.976;9.834;2023-04-29T06:19:18;50.30;;;27.37;;
75823;SDS011;64457;51.976;9.834;2023-04-29T06:21:46;49.77;;;26.63;;
75823;SDS011;64457;51.976;9.834;2023-04-29T06:24:15;57.00;;;29.43;;
75823;SDS011;64457;51.976;9.834;2023-04-29T06:26:43;59.17;;;30.37;;
75823;SDS011;64457;51.976;9.834;2023-04-29T06:29:11;54.67;;;31.00;;
75823;SDS011;64457;51.976;9.834;2023-04-29T06:31:41;59.67;;;32.17;;
75823;SDS011;64457;51.976;9.834;2023-04-29T06:34:11;62.17;;;32.70;;
75823;SDS011;64457;51.976;9.834;2023-04-29T06:36:39;67.70;;;34.07;;
75823;SDS011;64457;51.976;9.834;2023-04-29T06:39:07;71.47;;;35.40;;
75823;SDS011;64457;51.976;9.834;2023-04-29T06:41:36;66.87;;;35.10;;
75823;SDS011;64457;51.976;9.834;2023-04-29T06:44:05;67.17;;;35.23;;
75823;SDS011;64457;51.976;9.834;2023-04-29T06:46:32;70.70;;;35.80;;
75823;SDS011;64457;51.976;9.834;2023-04-29T06:49:02;75.20;;;38.33;;
75823;SDS011;64457;51.976;9.834;2023-04-29T06:51:31;78.60;;;39.63;;
75823;SDS011;64457;51.976;9.834;2023-04-29T06:54:01;75.13;;;36.47;;
75823;SDS011;64457;51.976;9.834;2023-04-29T06:56:29;76.40;;;38.37;;
75823;SDS011;64457;51.976;9.834;2023-04-29T06:58:57;68.23;;;37.00;;
75823;SDS011;64457;51.976;9.834;2023-04-29T07:01:24;68.07;;;35.50;;
75823;SDS011;64457;51.976;9.834;2023-04-29T07:03:52;63.77;;;34.10;;
75823;SDS011;64457;51.976;9.834;2023-04-29T07:06:22;67.37;;;35.90;;
75823;SDS011;64457;51.976;9.834;2023-04-29T07:08:50;65.97;;;35.43;;
75823;SDS011;64457;51.976;9.834;2023-04-29T07:11:17;62.77;;;33.53;;
75823;SDS011;64457;51.976;9.834;2023-04-29T07:13:46;62.90;;;35.40;;
75823;SDS011;64457;51.976;9.834;2023-04-29T07:16:14;75.67;;;34.27;;
75823;SDS011;64457;51.976;9.834;2023-04-29T07:18:44;64.07;;;35.07;;
75823;SDS011;64457;51.976;9.834;2023-04-29T07:21:12;61.90;;;34.60;;
75823;SDS011;64457;51.976;9.834;2023-04-29T07:23:41;64.20;;;33.90;;
75823;SDS011;64457;51.976;9.834;2023-04-29T07:26:10;67.43;;;34.60;;
75823;SDS011;64457;51.976;9.834;2023-04-29T07:28:38;54.80;;;31.50;;
75823;SDS011;64457;51.976;9.834;2023-04-29T07:31:06;52.40;;;29.60;;
75823;SDS011;64457;51.976;9.834;2023-04-29T07:33:34;51.70;;;29.20;;
75823;SDS011;64457;51.976;9.834;2023-04-29T07:36:03;55.50;;;30.30;;
75823;SDS011;64457;51.976;9.834;2023-04-29T07:38:32;51.63;;;28.70;;
75823;SDS011;64457;51.976;9.834;2023-04-29T07:41:03;45.73;;;26.70;;
75823;SDS011;64457;51.976;9.834;2023-04-29T07:43:31;46.93;;;27.00;;
75823;SDS011;64457;51.976;9.834;2023-04-29T07:46:00;41.10;;;24.10;;
75823;SDS011;64457;51.976;9.834;2023-04-29T07:48:27;42.13;;;23.67;;
75823;SDS011;64457;51.976;9.834;2023-04-29T07:50:55;42.17;;;24.80;;
75823;SDS011;64457;51.976;9.834;2023-04-29T07:53:24;40.90;;;24.27;;
75823;SDS011;64457;51.976;9.834;2023-04-29T07:55:52;40.47;;;23.93;;
75823;SDS011;64457;51.976;9.834;2023-04-29T07:58:21;39.00;;;22.40;;
75823;SDS011;64457;51.976;9.834;2023-04-29T08:00:49;41.83;;;23.70;;
75823;SDS011;64457;51.976;9.834;2023-04-29T08:03:17;39.20;;;23.67;;
75823;SDS011;64457;51.976;9.834;2023-04-29T08:05:45;42.93;;;24.90;;
75823;SDS011;64457;51.976;9.834;2023-04-29T08:08:12;39.20;;;23.60;;
75823;SDS011;64457;51.976;9.834;2023-04-29T08:10:41;37.57;;;22.93;;
75823;SDS011;64457;51.976;9.834;2023-04-29T08:13:08;40.93;;;23.10;;
75823;SDS011;64457;51.976;9.834;2023-04-29T08:15:40;41.90;;;22.87;;
75823;SDS011;64457;51.976;9.834;2023-04-29T08:18:08;39.83;;;23.70;;
75823;SDS011;64457;51.976;9.834;2023-04-29T08:20:35;38.90;;;22.17;;
75823;SDS011;64457;51.976;9.834;2023-04-29T08:23:03;41.90;;;23.13;;
75823;SDS011;64457;51.976;9.834;2023-04-29T08:25:31;38.10;;;22.90;;
75823;SDS011;64457;51.976;9.834;2023-04-29T08:28:00;43.40;;;21.60;;
75823;SDS011;64457;51.976;9.834;2023-04-29T08:30:27;38.10;;;21.00;;
75823;SDS011;64457;51.976;9.834;2023-04-29T08:32:57;34.23;;;20.30;;
75823;SDS011;64457;51.976;9.834;2023-04-29T08:35:25;36.00;;;21.47;;
75823;SDS011;64457;51.976;9.834;2023-04-29T08:37:53;35.77;;;21.20;;
75823;SDS011;64457;51.976;9.834;2023-04-29T08:40:21;39.80;;;22.37;;
75823;SDS011;64457;51.976;9.834;2023-04-29T08:42:49;34.40;;;20.23;;
75823;SDS011;64457;51.976;9.834;2023-04-29T08:45:19;36.40;;;21.00;;
75823;SDS011;64457;51.976;9.834;2023-04-29T08:47:51;36.33;;;19.50;;
75823;SDS011;64457;51.976;9.834;2023-04-29T08:50:23;30.50;;;18.70;;
75823;SDS011;64457;51.976;9.834;2023-04-29T08:52:52;29.67;;;17.30;;
75823;SDS011;64457;51.976;9.834;2023-04-29T08:55:21;29.23;;;17.60;;
75823;SDS011;64457;51.976;9.834;2023-04-29T08:57:52;38.83;;;20.00;;
75823;SDS011;64457;51.976;9.834;2023-04-29T09:00:21;26.97;;;17.10;;
75823;SDS011;64457;51.976;9.834;2023-04-29T09:02:52;27.30;;;16.30;;
75823;SDS011;64457;51.976;9.834;2023-04-29T09:05:23;23.07;;;14.07;;
75823;SDS011;64457;51.976;9.834;2023-04-29T09:07:52;27.07;;;14.83;;
75823;SDS011;64457;51.976;9.834;2023-04-29T09:10:26;29.20;;;15.47;;
75823;SDS011;64457;51.976;9.834;2023-04-29T09:12:56;27.87;;;16.60;;
75823;SDS011;64457;51.976;9.834;2023-04-29T09:15:25;28.27;;;15.43;;
75823;SDS011;64457;51.976;9.834;2023-04-29T09:17:53;25.27;;;13.40;;
75823;SDS011;64457;51.976;9.834;2023-04-29T09:20:27;26.33;;;15.43;;
75823;SDS011;64457;51.976;9.834;2023-04-29T09:22:56;26.77;;;14.97;;
75823;SDS011;64457;51.976;9.834;2023-04-29T09:25:28;25.20;;;14.67;;
75823;SDS011;64457;51.976;9.834;2023-04-29T09:27:58;21.03;;;13.57;;
75823;SDS011;64457;51.976;9.834;2023-04-29T09:30:44;23.73;;;13.93;;
75823;SDS011;64457;51.976;9.834;2023-04-29T09:33:12;23.30;;;14.20;;
75823;SDS011;64457;51.976;9.834;2023-04-29T09:35:42;20.43;;;12.90;;
75823;SDS011;64457;51.976;9.834;2023-04-29T09:38:11;21.67;;;12.90;;
75823;SDS011;64457;51.976;9.834;2023-04-29T09:40:41;24.53;;;13.80;;
75823;SDS011;64457;51.976;9.834;2023-04-29T09:43:12;19.60;;;12.23;;
75823;SDS011;64457;51.976;9.834;2023-04-29T09:45:43;22.33;;;12.33;;
75823;SDS011;64457;51.976;9.834;2023-04-29T09:48:13;23.83;;;12.67;;
75823;SDS011;64457;51.976;9.834;2023-04-29T09:50:43;19.10;;;10.77;;
75823;SDS011;64457;51.976;9.834;2023-04-29T09:53:28;18.47;;;11.13;;
75823;SDS011;64457;51.976;9.834;2023-04-29T09:55:58;22.33;;;11.40;;
75823;SDS011;64457;51.976;9.834;2023-04-29T09:58:28;20.80;;;12.20;;
75823;SDS011;64457;51.976;9.834;2023-04-29T10:01:01;18.67;;;11.77;;
75823;SDS011;64457;51.976;9.834;2023-04-29T10:03:31;20.60;;;11.47;;
75823;SDS011;64457;51.976;9.834;2023-04-29T10:06:02;19.63;;;10.73;;
75823;SDS011;64457;51.976;9.834;2023-04-29T10:08:34;16.87;;;10.30;;
75823;SDS011;64457;51.976;9.834;2023-04-29T10:11:02;21.83;;;10.07;;
75823;SDS011;64457;51.976;9.834;2023-04-29T10:13:31;16.97;;;10.10;;
75823;SDS011;64457;51.976;9.834;2023-04-29T10:16:05;18.00;;;10.00;;
75823;SDS011;64457;51.976;9.834;2023-04-29T10:18:43;16.30;;;9.60;;
75823;SDS011;64457;51.976;9.834;2023-04-29T10:21:23;19.80;;;10.00;;
75823;SDS011;64457;51.976;9.834;2023-04-29T10:23:55;19.23;;;10.17;;
75823;SDS011;64457;51.976;9.834;2023-04-29T10:26:25;18.10;;;10.70;;
75823;SDS011;64457;51.976;9.834;2023-04-29T10:28:56;17.00;;;10.13;;
75823;SDS011;64457;51.976;9.834;2023-04-29T10:31:25;19.50;;;10.20;;
75823;SDS011;64457;51.976;9.834;2023-04-29T10:33:54;18.93;;;10.47;;
75823;SDS011;64457;51.976;9.834;2023-04-29T10:36:29;17.60;;;9.97;;
75823;SDS011;64457;51.976;9.834;2023-04-29T10:38:59;18.67;;;10.07;;
75823;SDS011;64457;51.976;9.834;2023-04-29T10:41:30;17.23;;;9.63;;
75823;SDS011;64457;51.976;9.834;2023-04-29T10:44:04;16.87;;;9.77;;
75823;SDS011;64457;51.976;9.834;2023-04-29T10:46:36;19.90;;;9.70;;
75823;SDS011;64457;51.976;9.834;2023-04-29T10:49:03;19.20;;;10.13;;
75823;SDS011;64457;51.976;9.834;2023-04-29T10:51:34;18.27;;;9.80;;
75823;SDS011;64457;51.976;9.834;2023-04-29T10:54:07;17.17;;;10.23;;
75823;SDS011;64457;51.976;9.834;2023-04-29T10:56:37;20.27;;;10.97;;
75823;SDS011;64457;51.976;9.834;2023-04-29T10:59:11;22.20;;;11.03;;
75823;SDS011;64457;51.976;9.834;2023-04-29T11:01:41;18.87;;;10.20;;
75823;SDS011;64457;51.976;9.834;2023-04-29T11:04:12;18.43;;;10.60;;
75823;SDS011;64457;51.976;9.834;2023-04-29T11:06:43;17.53;;;10.53;;
75823;SDS011;64457;51.976;9.834;2023-04-29T11:09:14;20.43;;;10.83;;
75823;SDS011;64457;51.976;9.834;2023-04-29T11:11:59;20.03;;;10.67;;
75823;SDS011;64457;51.976;9.834;2023-04-29T11:14:30;23.00;;;11.70;;
75823;SDS011;64457;51.976;9.834;2023-04-29T11:17:13;20.00;;;10.43;;
75823;SDS011;64457;51.976;9.834;2023-04-29T11:19:45;21.60;;;11.73;;
75823;SDS011;64457;51.976;9.834;2023-04-29T11:25:04;21.50;;;11.33;;
75823;SDS011;64457;51.976;9.834;2023-04-29T11:27:34;18.53;;;11.10;;
75823;SDS011;64457;51.976;9.834;2023-04-29T11:30:04;19.10;;;10.97;;
75823;SDS011;64457;51.976;9.834;2023-04-29T11:32:34;22.00;;;11.30;;
75823;SDS011;64457;51.976;9.834;2023-04-29T11:35:07;17.57;;;10.83;;
75823;SDS011;64457;51.976;9.834;2023-04-29T11:37:37;24.93;;;12.40;;
75823;SDS011;64457;51.976;9.834;2023-04-29T11:40:07;18.97;;;11.10;;
75823;SDS011;64457;51.976;9.834;2023-04-29T11:42:39;20.43;;;11.40;;
75823;SDS011;64457;51.976;9.834;2023-04-29T11:45:09;24.13;;;12.10;;
75823;SDS011;64457;51.976;9.834;2023-04-29T11:47:41;23.50;;;12.60;;
75823;SDS011;64457;51.976;9.834;2023-04-29T11:50:11;24.67;;;14.17;;
75823;SDS011;64457;51.976;9.834;2023-04-29T11:52:42;24.23;;;14.77;;
75823;SDS011;64457;51.976;9.834;2023-04-29T11:55:12;21.20;;;13.20;;
75823;SDS011;64457;51.976;9.834;2023-04-29T11:57:40;22.87;;;13.30;;
75823;SDS011;64457;51.976;9.834;2023-04-29T12:00:09;20.30;;;12.97;;
75823;SDS011;64457;51.976;9.834;2023-04-29T12:02:43;23.50;;;14.50;;
75823;SDS011;64457;51.976;9.834;2023-04-29T12:05:13;21.43;;;13.30;;
75823;SDS011;64457;51.976;9.834;2023-04-29T12:07:42;22.90;;;12.87;;
75823;SDS011;64457;51.976;9.834;2023-04-29T12:10:10;25.50;;;13.30;;
75823;SDS011;64457;51.976;9.834;2023-04-29T12:12:38;22.20;;;14.03;;
75823;SDS011;64457;51.976;9.834;2023-04-29T12:15:08;23.00;;;14.10;;
75823;SDS011;64457;51.976;9.834;2023-04-29T12:17:36;22.37;;;12.93;;
75823;SDS011;64457;51.976;9.834;2023-04-29T12:20:05;22.77;;;13.30;;
75823;SDS011;64457;51.976;9.834;2023-04-29T12:22:35;25.30;;;13.60;;
75823;SDS011;64457;51.976;9.834;2023-04-29T12:25:05;21.30;;;12.83;;
75823;SDS011;64457;51.976;9.834;2023-04-29T12:27:35;21.47;;;13.33;;
75823;SDS011;64457;51.976;9.834;2023-04-29T12:30:08;20.23;;;11.47;;
75823;SDS011;64457;51.976;9.834;2023-04-29T12:32:37;19.30;;;12.10;;
75823;SDS011;64457;51.976;9.834;2023-04-29T12:35:08;20.17;;;12.27;;
75823;SDS011;64457;51.976;9.834;2023-04-29T12:37:46;20.80;;;10.20;;
75823;SDS011;64457;51.976;9.834;2023-04-29T12:40:17;17.77;;;9.57;;
75823;SDS011;64457;51.976;9.834;2023-04-29T12:42:45;14.43;;;9.17;;
75823;SDS011;64457;51.976;9.834;2023-04-29T12:45:26;19.53;;;10.77;;
75823;SDS011;64457;51.976;9.834;2023-04-29T12:47:57;18.80;;;11.87;;
75823;SDS011;64457;51.976;9.834;2023-04-29T12:50:28;22.00;;;12.40;;
75823;SDS011;64457;51.976;9.834;2023-04-29T12:52:59;24.53;;;13.60;;
75823;SDS011;64457;51.976;9.834;2023-04-29T12:55:33;25.17;;;13.30;;
75823;SDS011;64457;51.976;9.834;2023-04-29T12:58:02;28.00;;;13.07;;
75823;SDS011;64457;51.976;9.834;2023-04-29T13:00:38;22.03;;;13.60;;
75823;SDS011;64457;51.976;9.834;2023-04-29T13:03:06;21.17;;;12.63;;
75823;SDS011;64457;51.976;9.834;2023-04-29T13:05:34;21.63;;;12.33;;
75823;SDS011;64457;51.976;9.834;2023-04-29T13:08:04;19.80;;;11.70;;
75823;SDS011;64457;51.976;9.834;2023-04-29T13:10:35;23.17;;;10.83;;
75823;SDS011;64457;51.976;9.834;2023-04-29T13:13:03;16.90;;;10.10;;
75823;SDS011;64457;51.976;9.834;2023-04-29T13:15:34;18.77;;;9.60;;
75823;SDS011;64457;51.976;9.834;2023-04-29T13:18:03;16.20;;;8.60;;
75823;SDS011;64457;51.976;9.834;2023-04-29T13:20:31;15.33;;;8.30;;
75823;SDS011;64457;51.976;9.834;2023-04-29T13:23:01;15.60;;;8.30;;
75823;SDS011;64457;51.976;9.834;2023-04-29T13:25:29;19.30;;;9.80;;
75823;SDS011;64457;51.976;9.834;2023-04-29T13:27:58;14.47;;;9.27;;
75823;SDS011;64457;51.976;9.834;2023-04-29T13:30:26;15.53;;;9.17;;
75823;SDS011;64457;51.976;9.834;2023-04-29T13:32:54;16.50;;;10.03;;
75823;SDS011;64457;51.976;9.834;2023-04-29T13:35:23;17.37;;;10.17;;
75823;SDS011;64457;51.976;9.834;2023-04-29T13:37:52;17.80;;;10.30;;
75823;SDS011;64457;51.976;9.834;2023-04-29T13:40:21;19.20;;;10.07;;
75823;SDS011;64457;51.976;9.834;2023-04-29T13:42:50;25.37;;;12.10;;
75823;SDS011;64457;51.976;9.834;2023-04-29T13:45:22;21.60;;;12.50;;
75823;SDS011;64457;51.976;9.834;2023-04-29T13:47:51;21.40;;;12.97;;
75823;SDS011;64457;51.976;9.834;2023-04-29T13:50:19;21.60;;;13.33;;
75823;SDS011;64457;51.976;9.834;2023-04-29T13:52:50;25.30;;;13.70;;
75823;SDS011;64457;51.976;9.834;2023-04-29T13:55:22;21.80;;;13.47;;
75823;SDS011;64457;51.976;9.834;2023-04-29T13:57:51;22.10;;;13.13;;
75823;SDS011;64457;51.976;9.834;2023-04-29T14:00:19;21.17;;;12.63;;
75823;SDS011;64457;51.976;9.834;2023-04-29T14:02:49;21.67;;;12.77;;
75823;SDS011;64457;51.976;9.834;2023-04-29T14:05:18;24.97;;;13.30;;
75823;SDS011;64457;51.976;9.834;2023-04-29T14:07:47;19.93;;;11.23;;
75823;SDS011;64457;51.976;9.834;2023-04-29T14:10:16;22.30;;;12.20;;
75823;SDS011;64457;51.976;9.834;2023-04-29T14:12:44;23.13;;;11.67;;
75823;SDS011;64457;51.976;9.834;2023-04-29T14:15:13;21.80;;;11.50;;
75823;SDS011;64457;51.976;9.834;2023-04-29T14:17:42;19.37;;;11.13;;
75823;SDS011;64457;51.976;9.834;2023-04-29T14:20:11;19.90;;;11.67;;
75823;SDS011;64457;51.976;9.834;2023-04-29T14:22:39;18.43;;;10.83;;
75823;SDS011;64457;51.976;9.834;2023-04-29T14:25:07;23.03;;;11.93;;
75823;SDS011;64457;51.976;9.834;2023-04-29T14:27:36;20.93;;;11.63;;
75823;SDS011;64457;51.976;9.834;2023-04-29T14:30:05;22.93;;;11.70;;
75823;SDS011;64457;51.976;9.834;2023-04-29T14:32:34;20.10;;;10.37;;
75823;SDS011;64457;51.976;9.834;2023-04-29T14:35:03;21.37;;;10.70;;
75823;SDS011;64457;51.976;9.834;2023-04-29T14:37:33;19.33;;;10.20;;
75823;SDS011;64457;51.976;9.834;2023-04-29T14:40:01;17.63;;;8.90;;